sensor_id;sensor_type;location;lat;lon;timestamp;P1;durP1;ratioP1;P2;durP2;ratioP2
43457;SDS011;29046;54.184;18.680;2023-06-22T00:01:19;10.88;;;6.95;;
43457;SDS011;29046;54.184;18.680;2023-06-22T00:03:48;8.80;;;7.00;;
43457;SDS011;29046;54.184;18.680;2023-06-22T00:06:16;8.57;;;6.85;;
43457;SDS011;29046;54.184;18.680;2023-06-22T00:08:43;8.10;;;7.03;;
43457;SDS011;29046;54.184;18.680;2023-06-22T00:11:11;10.75;;;6.35;;
43457;SDS011;29046;54.184;18.680;2023-06-22T00:13:39;9.15;;;7.20;;
43457;SDS011;29046;54.184;18.680;2023-06-22T00:16:07;10.02;;;7.60;;
43457;SDS011;29046;54.184;18.680;2023-06-22T00:18:34;9.25;;;7.70;;
43457;SDS011;29046;54.184;18.680;2023-06-22T00:21:02;9.35;;;6.95;;
43457;SDS011;29046;54.184;18.680;2023-06-22T00:23:29;9.48;;;8.15;;
43457;SDS011;29046;54.184;18.680;2023-06-22T00:26:01;10.95;;;7.82;;
43457;SDS011;29046;54.184;18.680;2023-06-22T00:28:28;11.90;;;8.40;;
43457;SDS011;29046;54.184;18.680;2023-06-22T00:30:56;18.10;;;11.77;;
43457;SDS011;29046;54.184;18.680;2023-06-22T00:33:23;15.82;;;10.85;;
43457;SDS011;29046;54.184;18.680;2023-06-22T00:35:51;17.15;;;12.48;;
43457;SDS011;29046;54.184;18.680;2023-06-22T00:38:19;16.10;;;11.35;;
43457;SDS011;29046;54.184;18.680;2023-06-22T00:40:47;10.02;;;8.65;;
43457;SDS011;29046;54.184;18.680;2023-06-22T00:43:15;12.65;;;9.88;;
43457;SDS011;29046;54.184;18.680;2023-06-22T00:45:42;10.10;;;7.50;;
43457;SDS011;29046;54.184;18.680;2023-06-22T00:48:10;10.68;;;7.97;;
43457;SDS011;29046;54.184;18.680;2023-06-22T00:50:39;10.68;;;7.57;;
43457;SDS011;29046;54.184;18.680;2023-06-22T00:53:07;14.90;;;8.05;;
43457;SDS011;29046;54.184;18.680;2023-06-22T00:55:36;11.88;;;7.70;;
43457;SDS011;29046;54.184;18.680;2023-06-22T00:58:05;10.55;;;8.05;;
43457;SDS011;29046;54.184;18.680;2023-06-22T01:00:37;11.38;;;7.90;;
43457;SDS011;29046;54.184;18.680;2023-06-22T01:03:05;12.18;;;6.90;;
43457;SDS011;29046;54.184;18.680;2023-06-22T01:05:36;11.07;;;8.07;;
43457;SDS011;29046;54.184;18.680;2023-06-22T01:10:50;9.70;;;7.38;;
43457;SDS011;29046;54.184;18.680;2023-06-22T01:13:28;11.55;;;7.35;;
43457;SDS011;29046;54.184;18.680;2023-06-22T01:16:02;14.05;;;8.93;;
43457;SDS011;29046;54.184;18.680;2023-06-22T01:18:31;13.07;;;10.43;;
43457;SDS011;29046;54.184;18.680;2023-06-22T01:21:04;10.95;;;8.82;;
43457;SDS011;29046;54.184;18.680;2023-06-22T01:26:05;12.10;;;10.27;;
43457;SDS011;29046;54.184;18.680;2023-06-22T01:28:53;9.63;;;7.45;;
43457;SDS011;29046;54.184;18.680;2023-06-22T01:31:24;8.32;;;7.25;;
43457;SDS011;29046;54.184;18.680;2023-06-22T01:33:53;8.35;;;7.10;;
43457;SDS011;29046;54.184;18.680;2023-06-22T01:36:22;9.88;;;7.47;;
43457;SDS011;29046;54.184;18.680;2023-06-22T01:38:50;11.38;;;8.52;;
43457;SDS011;29046;54.184;18.680;2023-06-22T01:41:20;8.98;;;8.07;;
43457;SDS011;29046;54.184;18.680;2023-06-22T01:43:47;9.85;;;7.43;;
43457;SDS011;29046;54.184;18.680;2023-06-22T01:46:16;10.23;;;8.55;;
43457;SDS011;29046;54.184;18.680;2023-06-22T01:48:46;9.85;;;7.68;;
43457;SDS011;29046;54.184;18.680;2023-06-22T01:51:14;8.43;;;7.53;;
43457;SDS011;29046;54.184;18.680;2023-06-22T01:53:42;13.75;;;8.02;;
43457;SDS011;29046;54.184;18.680;2023-06-22T01:56:10;11.60;;;8.40;;
43457;SDS011;29046;54.184;18.680;2023-06-22T01:58:40;12.00;;;7.95;;
43457;SDS011;29046;54.184;18.680;2023-06-22T02:01:12;12.50;;;8.25;;
43457;SDS011;29046;54.184;18.680;2023-06-22T02:03:41;10.88;;;8.10;;
43457;SDS011;29046;54.184;18.680;2023-06-22T02:06:10;11.38;;;7.00;;
43457;SDS011;29046;54.184;18.680;2023-06-22T02:08:41;11.80;;;7.75;;
43457;SDS011;29046;54.184;18.680;2023-06-22T02:11:14;13.45;;;8.23;;
43457;SDS011;29046;54.184;18.680;2023-06-22T02:13:44;14.68;;;7.63;;
43457;SDS011;29046;54.184;18.680;2023-06-22T02:16:13;10.35;;;7.30;;
43457;SDS011;29046;54.184;18.680;2023-06-22T02:18:45;11.23;;;7.90;;
43457;SDS011;29046;54.184;18.680;2023-06-22T02:23:40;14.52;;;7.90;;
43457;SDS011;29046;54.184;18.680;2023-06-22T02:26:08;12.00;;;8.43;;
43457;SDS011;29046;54.184;18.680;2023-06-22T02:28:35;10.65;;;7.90;;
43457;SDS011;29046;54.184;18.680;2023-06-22T02:31:03;15.85;;;8.60;;
43457;SDS011;29046;54.184;18.680;2023-06-22T02:33:31;10.15;;;8.18;;
43457;SDS011;29046;54.184;18.680;2023-06-22T02:35:58;12.07;;;8.75;;
43457;SDS011;29046;54.184;18.680;2023-06-22T02:38:26;13.88;;;9.60;;
43457;SDS011;29046;54.184;18.680;2023-06-22T02:40:53;15.82;;;8.77;;
43457;SDS011;29046;54.184;18.680;2023-06-22T02:43:21;12.23;;;8.68;;
43457;SDS011;29046;54.184;18.680;2023-06-22T02:45:48;12.85;;;9.05;;
43457;SDS011;29046;54.184;18.680;2023-06-22T02:48:16;12.63;;;9.57;;
43457;SDS011;29046;54.184;18.680;2023-06-22T02:50:43;13.77;;;8.77;;
43457;SDS011;29046;54.184;18.680;2023-06-22T02:53:11;13.65;;;8.30;;
43457;SDS011;29046;54.184;18.680;2023-06-22T02:55:39;15.13;;;10.02;;
43457;SDS011;29046;54.184;18.680;2023-06-22T02:58:07;16.90;;;9.52;;
43457;SDS011;29046;54.184;18.680;2023-06-22T03:00:35;19.45;;;9.48;;
43457;SDS011;29046;54.184;18.680;2023-06-22T03:03:02;13.60;;;9.73;;
43457;SDS011;29046;54.184;18.680;2023-06-22T03:05:30;14.85;;;9.80;;
43457;SDS011;29046;54.184;18.680;2023-06-22T03:07:59;17.42;;;10.05;;
43457;SDS011;29046;54.184;18.680;2023-06-22T03:10:26;18.35;;;10.43;;
43457;SDS011;29046;54.184;18.680;2023-06-22T03:12:54;15.05;;;9.88;;
43457;SDS011;29046;54.184;18.680;2023-06-22T03:15:22;17.13;;;11.05;;
43457;SDS011;29046;54.184;18.680;2023-06-22T03:17:49;18.58;;;10.80;;
43457;SDS011;29046;54.184;18.680;2023-06-22T03:20:17;17.83;;;11.85;;
43457;SDS011;29046;54.184;18.680;2023-06-22T03:22:45;13.18;;;10.55;;
43457;SDS011;29046;54.184;18.680;2023-06-22T03:25:13;14.73;;;11.73;;
43457;SDS011;29046;54.184;18.680;2023-06-22T03:27:41;16.10;;;11.50;;
43457;SDS011;29046;54.184;18.680;2023-06-22T03:30:10;17.73;;;10.82;;
43457;SDS011;29046;54.184;18.680;2023-06-22T03:32:37;16.33;;;12.73;;
43457;SDS011;29046;54.184;18.680;2023-06-22T03:35:05;23.60;;;13.00;;
43457;SDS011;29046;54.184;18.680;2023-06-22T03:37:33;16.70;;;12.07;;
43457;SDS011;29046;54.184;18.680;2023-06-22T03:40:00;16.55;;;11.05;;
43457;SDS011;29046;54.184;18.680;2023-06-22T03:42:31;14.70;;;10.50;;
43457;SDS011;29046;54.184;18.680;2023-06-22T03:44:59;14.57;;;10.60;;
43457;SDS011;29046;54.184;18.680;2023-06-22T03:47:27;14.25;;;9.90;;
43457;SDS011;29046;54.184;18.680;2023-06-22T03:49:55;13.13;;;9.35;;
43457;SDS011;29046;54.184;18.680;2023-06-22T03:52:22;11.10;;;8.48;;
43457;SDS011;29046;54.184;18.680;2023-06-22T03:54:50;13.48;;;8.82;;
43457;SDS011;29046;54.184;18.680;2023-06-22T03:57:17;13.82;;;8.77;;
43457;SDS011;29046;54.184;18.680;2023-06-22T03:59:45;12.52;;;8.50;;
43457;SDS011;29046;54.184;18.680;2023-06-22T04:02:12;12.57;;;7.72;;
43457;SDS011;29046;54.184;18.680;2023-06-22T04:04:40;15.55;;;8.63;;
43457;SDS011;29046;54.184;18.680;2023-06-22T04:07:07;14.77;;;8.70;;
43457;SDS011;29046;54.184;18.680;2023-06-22T04:09:35;16.25;;;8.27;;
43457;SDS011;29046;54.184;18.680;2023-06-22T04:12:03;13.70;;;7.90;;
43457;SDS011;29046;54.184;18.680;2023-06-22T04:14:30;14.27;;;9.20;;
43457;SDS011;29046;54.184;18.680;2023-06-22T04:16:58;21.45;;;7.70;;
43457;SDS011;29046;54.184;18.680;2023-06-22T04:19:26;12.88;;;7.47;;
43457;SDS011;29046;54.184;18.680;2023-06-22T04:21:53;12.30;;;7.07;;
43457;SDS011;29046;54.184;18.680;2023-06-22T04:24:21;16.75;;;7.75;;
43457;SDS011;29046;54.184;18.680;2023-06-22T04:26:48;8.07;;;6.53;;
43457;SDS011;29046;54.184;18.680;2023-06-22T04:29:20;11.48;;;7.75;;
43457;SDS011;29046;54.184;18.680;2023-06-22T04:31:55;14.88;;;7.28;;
43457;SDS011;29046;54.184;18.680;2023-06-22T04:34:25;8.18;;;6.78;;
43457;SDS011;29046;54.184;18.680;2023-06-22T04:36:52;12.40;;;7.05;;
43457;SDS011;29046;54.184;18.680;2023-06-22T04:39:20;9.20;;;6.97;;
43457;SDS011;29046;54.184;18.680;2023-06-22T04:41:48;13.00;;;7.05;;
43457;SDS011;29046;54.184;18.680;2023-06-22T04:44:17;10.50;;;7.50;;
43457;SDS011;29046;54.184;18.680;2023-06-22T04:46:52;12.65;;;7.13;;
43457;SDS011;29046;54.184;18.680;2023-06-22T04:49:20;12.35;;;6.93;;
43457;SDS011;29046;54.184;18.680;2023-06-22T04:51:48;15.30;;;7.82;;
43457;SDS011;29046;54.184;18.680;2023-06-22T04:54:18;10.43;;;6.32;;
43457;SDS011;29046;54.184;18.680;2023-06-22T04:56:45;10.68;;;5.63;;
43457;SDS011;29046;54.184;18.680;2023-06-22T04:59:14;14.52;;;6.70;;
43457;SDS011;29046;54.184;18.680;2023-06-22T05:01:44;10.57;;;7.22;;
43457;SDS011;29046;54.184;18.680;2023-06-22T05:04:12;8.52;;;5.28;;
43457;SDS011;29046;54.184;18.680;2023-06-22T05:06:40;8.52;;;5.88;;
43457;SDS011;29046;54.184;18.680;2023-06-22T05:09:07;9.70;;;4.25;;
43457;SDS011;29046;54.184;18.680;2023-06-22T05:11:34;10.75;;;5.60;;
43457;SDS011;29046;54.184;18.680;2023-06-22T05:14:02;11.80;;;5.95;;
43457;SDS011;29046;54.184;18.680;2023-06-22T05:16:30;8.18;;;5.22;;
43457;SDS011;29046;54.184;18.680;2023-06-22T05:18:57;8.20;;;5.60;;
43457;SDS011;29046;54.184;18.680;2023-06-22T05:21:26;13.27;;;5.53;;
43457;SDS011;29046;54.184;18.680;2023-06-22T05:23:54;7.93;;;5.35;;
43457;SDS011;29046;54.184;18.680;2023-06-22T05:26:22;7.70;;;4.90;;
43457;SDS011;29046;54.184;18.680;2023-06-22T05:28:50;7.68;;;5.15;;
43457;SDS011;29046;54.184;18.680;2023-06-22T05:31:17;8.63;;;4.88;;
43457;SDS011;29046;54.184;18.680;2023-06-22T05:33:46;9.77;;;5.35;;
43457;SDS011;29046;54.184;18.680;2023-06-22T05:36:14;6.78;;;4.53;;
43457;SDS011;29046;54.184;18.680;2023-06-22T05:38:42;6.82;;;4.32;;
43457;SDS011;29046;54.184;18.680;2023-06-22T05:41:10;6.25;;;4.30;;
43457;SDS011;29046;54.184;18.680;2023-06-22T05:43:37;11.07;;;4.60;;
43457;SDS011;29046;54.184;18.680;2023-06-22T05:46:05;7.30;;;4.05;;
43457;SDS011;29046;54.184;18.680;2023-06-22T05:48:33;5.88;;;3.90;;
43457;SDS011;29046;54.184;18.680;2023-06-22T05:51:00;5.72;;;3.85;;
43457;SDS011;29046;54.184;18.680;2023-06-22T05:53:28;9.25;;;4.15;;
43457;SDS011;29046;54.184;18.680;2023-06-22T05:55:55;5.43;;;3.97;;
43457;SDS011;29046;54.184;18.680;2023-06-22T05:58:23;7.32;;;3.70;;
43457;SDS011;29046;54.184;18.680;2023-06-22T06:00:50;5.85;;;3.55;;
43457;SDS011;29046;54.184;18.680;2023-06-22T06:03:18;6.93;;;3.55;;
43457;SDS011;29046;54.184;18.680;2023-06-22T06:05:45;8.00;;;3.65;;
43457;SDS011;29046;54.184;18.680;2023-06-22T06:08:13;7.38;;;3.42;;
43457;SDS011;29046;54.184;18.680;2023-06-22T06:10:40;5.35;;;3.50;;
43457;SDS011;29046;54.184;18.680;2023-06-22T06:13:08;8.07;;;3.22;;
43457;SDS011;29046;54.184;18.680;2023-06-22T06:15:35;5.68;;;3.20;;
43457;SDS011;29046;54.184;18.680;2023-06-22T06:18:03;5.40;;;3.53;;
43457;SDS011;29046;54.184;18.680;2023-06-22T06:20:32;7.53;;;3.42;;
43457;SDS011;29046;54.184;18.680;2023-06-22T06:23:00;4.47;;;3.53;;
43457;SDS011;29046;54.184;18.680;2023-06-22T06:25:28;8.05;;;4.35;;
43457;SDS011;29046;54.184;18.680;2023-06-22T06:27:55;6.72;;;4.35;;
43457;SDS011;29046;54.184;18.680;2023-06-22T06:30:23;9.65;;;4.05;;
43457;SDS011;29046;54.184;18.680;2023-06-22T06:32:51;7.35;;;3.10;;
43457;SDS011;29046;54.184;18.680;2023-06-22T06:35:18;7.50;;;3.10;;
43457;SDS011;29046;54.184;18.680;2023-06-22T06:37:47;11.55;;;3.22;;
43457;SDS011;29046;54.184;18.680;2023-06-22T06:40:15;6.32;;;2.53;;
43457;SDS011;29046;54.184;18.680;2023-06-22T06:42:47;8.07;;;3.40;;
43457;SDS011;29046;54.184;18.680;2023-06-22T06:45:18;8.23;;;4.35;;
43457;SDS011;29046;54.184;18.680;2023-06-22T06:47:46;8.55;;;3.55;;
43457;SDS011;29046;54.184;18.680;2023-06-22T06:50:14;5.88;;;3.45;;
43457;SDS011;29046;54.184;18.680;2023-06-22T06:52:42;4.20;;;2.83;;
43457;SDS011;29046;54.184;18.680;2023-06-22T06:55:09;5.22;;;3.35;;
43457;SDS011;29046;54.184;18.680;2023-06-22T06:57:39;6.90;;;3.80;;
43457;SDS011;29046;54.184;18.680;2023-06-22T07:00:12;24.23;;;4.18;;
43457;SDS011;29046;54.184;18.680;2023-06-22T07:02:41;10.55;;;3.42;;
43457;SDS011;29046;54.184;18.680;2023-06-22T07:05:09;6.85;;;2.67;;
43457;SDS011;29046;54.184;18.680;2023-06-22T07:07:38;5.20;;;2.88;;
43457;SDS011;29046;54.184;18.680;2023-06-22T07:10:05;5.53;;;2.72;;
43457;SDS011;29046;54.184;18.680;2023-06-22T07:12:33;8.85;;;2.25;;
43457;SDS011;29046;54.184;18.680;2023-06-22T07:15:02;7.30;;;2.95;;
43457;SDS011;29046;54.184;18.680;2023-06-22T07:17:30;6.70;;;2.70;;
43457;SDS011;29046;54.184;18.680;2023-06-22T07:19:57;5.85;;;2.78;;
43457;SDS011;29046;54.184;18.680;2023-06-22T07:22:25;8.57;;;3.08;;
43457;SDS011;29046;54.184;18.680;2023-06-22T07:24:52;6.32;;;2.67;;
43457;SDS011;29046;54.184;18.680;2023-06-22T07:27:20;5.38;;;3.03;;
43457;SDS011;29046;54.184;18.680;2023-06-22T07:29:47;5.30;;;2.53;;
43457;SDS011;29046;54.184;18.680;2023-06-22T07:32:15;5.68;;;2.33;;
43457;SDS011;29046;54.184;18.680;2023-06-22T07:34:42;5.72;;;2.42;;
43457;SDS011;29046;54.184;18.680;2023-06-22T07:37:10;6.25;;;2.95;;
43457;SDS011;29046;54.184;18.680;2023-06-22T07:39:38;4.63;;;2.60;;
43457;SDS011;29046;54.184;18.680;2023-06-22T07:42:05;5.30;;;2.88;;
43457;SDS011;29046;54.184;18.680;2023-06-22T07:44:35;7.55;;;3.22;;
43457;SDS011;29046;54.184;18.680;2023-06-22T07:47:03;9.52;;;4.68;;
43457;SDS011;29046;54.184;18.680;2023-06-22T07:49:30;10.68;;;3.88;;
43457;SDS011;29046;54.184;18.680;2023-06-22T07:51:58;7.57;;;3.47;;
43457;SDS011;29046;54.184;18.680;2023-06-22T07:54:25;5.25;;;3.08;;
43457;SDS011;29046;54.184;18.680;2023-06-22T07:56:53;7.57;;;3.88;;
43457;SDS011;29046;54.184;18.680;2023-06-22T07:59:20;8.02;;;2.92;;
43457;SDS011;29046;54.184;18.680;2023-06-22T08:01:48;6.63;;;3.05;;
43457;SDS011;29046;54.184;18.680;2023-06-22T08:04:15;6.63;;;3.00;;
43457;SDS011;29046;54.184;18.680;2023-06-22T08:06:43;3.95;;;2.58;;
43457;SDS011;29046;54.184;18.680;2023-06-22T08:09:10;7.38;;;2.97;;
43457;SDS011;29046;54.184;18.680;2023-06-22T08:11:38;7.45;;;2.83;;
43457;SDS011;29046;54.184;18.680;2023-06-22T08:14:06;6.13;;;2.85;;
43457;SDS011;29046;54.184;18.680;2023-06-22T08:16:33;7.97;;;2.42;;
43457;SDS011;29046;54.184;18.680;2023-06-22T08:19:01;5.57;;;2.78;;
43457;SDS011;29046;54.184;18.680;2023-06-22T08:21:29;6.35;;;2.53;;
43457;SDS011;29046;54.184;18.680;2023-06-22T08:23:56;5.55;;;2.80;;
43457;SDS011;29046;54.184;18.680;2023-06-22T08:26:24;6.97;;;2.80;;
43457;SDS011;29046;54.184;18.680;2023-06-22T08:28:51;3.78;;;2.70;;
43457;SDS011;29046;54.184;18.680;2023-06-22T08:31:19;3.00;;;2.70;;
43457;SDS011;29046;54.184;18.680;2023-06-22T08:33:47;5.05;;;3.05;;
43457;SDS011;29046;54.184;18.680;2023-06-22T08:36:16;4.90;;;2.75;;
43457;SDS011;29046;54.184;18.680;2023-06-22T08:38:43;5.30;;;2.95;;
43457;SDS011;29046;54.184;18.680;2023-06-22T08:41:11;8.05;;;5.55;;
43457;SDS011;29046;54.184;18.680;2023-06-22T08:43:38;10.27;;;3.78;;
43457;SDS011;29046;54.184;18.680;2023-06-22T08:46:06;8.48;;;3.83;;
43457;SDS011;29046;54.184;18.680;2023-06-22T08:48:33;5.78;;;3.40;;
43457;SDS011;29046;54.184;18.680;2023-06-22T08:51:01;11.30;;;3.88;;
43457;SDS011;29046;54.184;18.680;2023-06-22T08:53:29;9.90;;;3.50;;
43457;SDS011;29046;54.184;18.680;2023-06-22T08:55:57;3.28;;;2.25;;
43457;SDS011;29046;54.184;18.680;2023-06-22T08:58:24;4.88;;;3.22;;
43457;SDS011;29046;54.184;18.680;2023-06-22T09:00:52;4.25;;;2.45;;
43457;SDS011;29046;54.184;18.680;2023-06-22T09:03:19;9.45;;;3.20;;
43457;SDS011;29046;54.184;18.680;2023-06-22T09:05:47;4.68;;;2.47;;
43457;SDS011;29046;54.184;18.680;2023-06-22T09:08:15;7.28;;;3.28;;
43457;SDS011;29046;54.184;18.680;2023-06-22T09:10:42;6.55;;;2.58;;
43457;SDS011;29046;54.184;18.680;2023-06-22T09:13:10;4.53;;;2.50;;
43457;SDS011;29046;54.184;18.680;2023-06-22T09:15:37;5.95;;;3.25;;
43457;SDS011;29046;54.184;18.680;2023-06-22T09:18:05;6.57;;;3.53;;
43457;SDS011;29046;54.184;18.680;2023-06-22T09:20:33;4.55;;;2.88;;
43457;SDS011;29046;54.184;18.680;2023-06-22T09:23:00;5.40;;;2.88;;
43457;SDS011;29046;54.184;18.680;2023-06-22T09:25:28;4.55;;;2.97;;
43457;SDS011;29046;54.184;18.680;2023-06-22T09:27:55;5.50;;;2.60;;
43457;SDS011;29046;54.184;18.680;2023-06-22T09:30:23;8.43;;;4.80;;
43457;SDS011;29046;54.184;18.680;2023-06-22T09:32:50;5.07;;;3.83;;
43457;SDS011;29046;54.184;18.680;2023-06-22T09:35:19;7.43;;;2.80;;
43457;SDS011;29046;54.184;18.680;2023-06-22T09:37:46;6.55;;;2.72;;
43457;SDS011;29046;54.184;18.680;2023-06-22T09:40:14;23.63;;;12.32;;
43457;SDS011;29046;54.184;18.680;2023-06-22T09:42:43;9.98;;;2.75;;
43457;SDS011;29046;54.184;18.680;2023-06-22T09:45:11;6.13;;;3.00;;
43457;SDS011;29046;54.184;18.680;2023-06-22T09:47:38;5.40;;;3.00;;
43457;SDS011;29046;54.184;18.680;2023-06-22T09:50:06;7.20;;;3.40;;
43457;SDS011;29046;54.184;18.680;2023-06-22T09:52:34;5.22;;;3.00;;
43457;SDS011;29046;54.184;18.680;2023-06-22T09:55:14;5.25;;;3.03;;
43457;SDS011;29046;54.184;18.680;2023-06-22T09:57:42;4.63;;;3.22;;
43457;SDS011;29046;54.184;18.680;2023-06-22T10:00:10;6.00;;;3.38;;
43457;SDS011;29046;54.184;18.680;2023-06-22T10:02:41;5.18;;;3.05;;
43457;SDS011;29046;54.184;18.680;2023-06-22T10:05:10;5.32;;;3.08;;
43457;SDS011;29046;54.184;18.680;2023-06-22T10:07:38;5.25;;;2.97;;
43457;SDS011;29046;54.184;18.680;2023-06-22T10:10:10;5.18;;;2.92;;
43457;SDS011;29046;54.184;18.680;2023-06-22T10:12:41;5.60;;;2.92;;
43457;SDS011;29046;54.184;18.680;2023-06-22T10:15:09;6.75;;;3.95;;
43457;SDS011;29046;54.184;18.680;2023-06-22T10:17:37;3.83;;;2.70;;
43457;SDS011;29046;54.184;18.680;2023-06-22T10:20:06;5.53;;;3.40;;
43457;SDS011;29046;54.184;18.680;2023-06-22T10:22:40;5.40;;;2.90;;
43457;SDS011;29046;54.184;18.680;2023-06-22T10:25:08;4.82;;;2.97;;
43457;SDS011;29046;54.184;18.680;2023-06-22T10:27:36;9.20;;;3.60;;
43457;SDS011;29046;54.184;18.680;2023-06-22T10:30:07;3.95;;;2.58;;
43457;SDS011;29046;54.184;18.680;2023-06-22T10:32:35;4.50;;;2.42;;
43457;SDS011;29046;54.184;18.680;2023-06-22T10:35:03;4.32;;;2.50;;
43457;SDS011;29046;54.184;18.680;2023-06-22T10:37:31;3.85;;;3.35;;
43457;SDS011;29046;54.184;18.680;2023-06-22T10:39:58;8.85;;;4.93;;
43457;SDS011;29046;54.184;18.680;2023-06-22T10:42:26;8.45;;;4.32;;
43457;SDS011;29046;54.184;18.680;2023-06-22T10:44:53;4.45;;;2.70;;
43457;SDS011;29046;54.184;18.680;2023-06-22T10:47:21;4.95;;;2.85;;
43457;SDS011;29046;54.184;18.680;2023-06-22T10:49:48;5.20;;;3.10;;
43457;SDS011;29046;54.184;18.680;2023-06-22T10:52:16;4.35;;;3.10;;
43457;SDS011;29046;54.184;18.680;2023-06-22T10:54:43;4.55;;;2.90;;
43457;SDS011;29046;54.184;18.680;2023-06-22T10:57:11;5.43;;;3.20;;
43457;SDS011;29046;54.184;18.680;2023-06-22T10:59:38;25.10;;;15.95;;
43457;SDS011;29046;54.184;18.680;2023-06-22T11:02:06;5.82;;;3.95;;
43457;SDS011;29046;54.184;18.680;2023-06-22T11:04:33;4.80;;;3.00;;
43457;SDS011;29046;54.184;18.680;2023-06-22T11:07:01;5.57;;;3.25;;
43457;SDS011;29046;54.184;18.680;2023-06-22T11:09:29;4.28;;;3.00;;
43457;SDS011;29046;54.184;18.680;2023-06-22T11:11:56;5.50;;;3.08;;
43457;SDS011;29046;54.184;18.680;2023-06-22T11:14:26;4.68;;;2.63;;
43457;SDS011;29046;54.184;18.680;2023-06-22T11:16:53;6.05;;;3.00;;
43457;SDS011;29046;54.184;18.680;2023-06-22T11:19:21;3.92;;;3.13;;
43457;SDS011;29046;54.184;18.680;2023-06-22T11:21:48;7.65;;;2.97;;
43457;SDS011;29046;54.184;18.680;2023-06-22T11:24:16;4.43;;;3.28;;
43457;SDS011;29046;54.184;18.680;2023-06-22T11:26:44;4.78;;;3.08;;
43457;SDS011;29046;54.184;18.680;2023-06-22T11:29:11;2.63;;;2.38;;
43457;SDS011;29046;54.184;18.680;2023-06-22T11:31:57;3.50;;;3.03;;
43457;SDS011;29046;54.184;18.680;2023-06-22T11:34:25;4.85;;;2.75;;
43457;SDS011;29046;54.184;18.680;2023-06-22T11:36:52;4.20;;;3.00;;
43457;SDS011;29046;54.184;18.680;2023-06-22T11:39:20;4.75;;;3.03;;
43457;SDS011;29046;54.184;18.680;2023-06-22T11:42:04;4.38;;;2.85;;
43457;SDS011;29046;54.184;18.680;2023-06-22T11:44:32;3.50;;;2.80;;
43457;SDS011;29046;54.184;18.680;2023-06-22T11:46:59;4.65;;;2.80;;
43457;SDS011;29046;54.184;18.680;2023-06-22T11:49:27;5.72;;;3.20;;
43457;SDS011;29046;54.184;18.680;2023-06-22T11:51:55;6.93;;;2.97;;
43457;SDS011;29046;54.184;18.680;2023-06-22T11:54:22;8.32;;;3.53;;
43457;SDS011;29046;54.184;18.680;2023-06-22T11:56:50;4.43;;;3.05;;
43457;SDS011;29046;54.184;18.680;2023-06-22T11:59:17;4.57;;;2.70;;
43457;SDS011;29046;54.184;18.680;2023-06-22T12:01:45;4.40;;;2.97;;
43457;SDS011;29046;54.184;18.680;2023-06-22T12:04:13;2.78;;;2.58;;
43457;SDS011;29046;54.184;18.680;2023-06-22T12:06:41;4.28;;;3.00;;
43457;SDS011;29046;54.184;18.680;2023-06-22T12:09:10;4.88;;;3.17;;
43457;SDS011;29046;54.184;18.680;2023-06-22T12:11:39;3.65;;;2.78;;
43457;SDS011;29046;54.184;18.680;2023-06-22T12:14:07;4.13;;;2.85;;
43457;SDS011;29046;54.184;18.680;2023-06-22T12:16:34;6.22;;;3.28;;
43457;SDS011;29046;54.184;18.680;2023-06-22T12:19:02;5.95;;;2.90;;
43457;SDS011;29046;54.184;18.680;2023-06-22T12:21:30;4.25;;;2.47;;
43457;SDS011;29046;54.184;18.680;2023-06-22T12:23:57;7.32;;;2.85;;
43457;SDS011;29046;54.184;18.680;2023-06-22T12:26:25;3.00;;;2.40;;
43457;SDS011;29046;54.184;18.680;2023-06-22T12:28:52;4.32;;;2.70;;
43457;SDS011;29046;54.184;18.680;2023-06-22T12:31:20;4.72;;;2.40;;
43457;SDS011;29046;54.184;18.680;2023-06-22T12:33:47;3.33;;;2.60;;
43457;SDS011;29046;54.184;18.680;2023-06-22T12:36:15;4.65;;;3.08;;
43457;SDS011;29046;54.184;18.680;2023-06-22T12:38:43;4.78;;;2.60;;
43457;SDS011;29046;54.184;18.680;2023-06-22T12:41:10;4.18;;;3.00;;
43457;SDS011;29046;54.184;18.680;2023-06-22T12:43:40;2.92;;;2.63;;
43457;SDS011;29046;54.184;18.680;2023-06-22T12:46:07;4.35;;;2.90;;
43457;SDS011;29046;54.184;18.680;2023-06-22T12:48:35;4.40;;;2.88;;
43457;SDS011;29046;54.184;18.680;2023-06-22T12:53:35;4.75;;;3.13;;
43457;SDS011;29046;54.184;18.680;2023-06-22T12:56:03;5.07;;;3.00;;
43457;SDS011;29046;54.184;18.680;2023-06-22T12:58:31;4.00;;;3.33;;
43457;SDS011;29046;54.184;18.680;2023-06-22T13:00:58;5.57;;;3.13;;
43457;SDS011;29046;54.184;18.680;2023-06-22T13:03:26;10.35;;;3.85;;
43457;SDS011;29046;54.184;18.680;2023-06-22T13:05:54;6.05;;;3.22;;
43457;SDS011;29046;54.184;18.680;2023-06-22T13:08:22;4.53;;;2.95;;
43457;SDS011;29046;54.184;18.680;2023-06-22T13:11:09;8.07;;;3.13;;
43457;SDS011;29046;54.184;18.680;2023-06-22T13:13:38;8.13;;;2.88;;
43457;SDS011;29046;54.184;18.680;2023-06-22T13:16:05;5.03;;;2.90;;
43457;SDS011;29046;54.184;18.680;2023-06-22T13:18:33;8.82;;;3.20;;
43457;SDS011;29046;54.184;18.680;2023-06-22T13:21:02;5.80;;;3.03;;
43457;SDS011;29046;54.184;18.680;2023-06-22T13:23:30;7.25;;;3.17;;
43457;SDS011;29046;54.184;18.680;2023-06-22T13:25:57;5.03;;;3.25;;
43457;SDS011;29046;54.184;18.680;2023-06-22T13:28:27;8.23;;;3.47;;
43457;SDS011;29046;54.184;18.680;2023-06-22T13:30:56;5.85;;;3.22;;
43457;SDS011;29046;54.184;18.680;2023-06-22T13:33:24;6.38;;;3.15;;
43457;SDS011;29046;54.184;18.680;2023-06-22T13:35:51;6.95;;;3.50;;
43457;SDS011;29046;54.184;18.680;2023-06-22T13:38:19;3.88;;;2.97;;
43457;SDS011;29046;54.184;18.680;2023-06-22T13:40:46;4.60;;;3.20;;
43457;SDS011;29046;54.184;18.680;2023-06-22T13:43:14;10.32;;;3.20;;
43457;SDS011;29046;54.184;18.680;2023-06-22T13:45:42;4.30;;;3.20;;
43457;SDS011;29046;54.184;18.680;2023-06-22T13:48:10;8.02;;;3.45;;
43457;SDS011;29046;54.184;18.680;2023-06-22T13:50:37;5.63;;;3.55;;
43457;SDS011;29046;54.184;18.680;2023-06-22T13:53:05;4.03;;;3.15;;
43457;SDS011;29046;54.184;18.680;2023-06-22T13:55:32;5.32;;;3.50;;
43457;SDS011;29046;54.184;18.680;2023-06-22T13:58:00;4.03;;;3.08;;
43457;SDS011;29046;54.184;18.680;2023-06-22T14:00:28;7.93;;;3.50;;
43457;SDS011;29046;54.184;18.680;2023-06-22T14:02:56;7.70;;;3.83;;
43457;SDS011;29046;54.184;18.680;2023-06-22T14:05:23;5.90;;;3.45;;
43457;SDS011;29046;54.184;18.680;2023-06-22T14:07:51;5.55;;;3.30;;
43457;SDS011;29046;54.184;18.680;2023-06-22T14:10:19;3.63;;;3.15;;
43457;SDS011;29046;54.184;18.680;2023-06-22T14:12:46;8.60;;;3.58;;
43457;SDS011;29046;54.184;18.680;2023-06-22T14:15:14;6.10;;;3.60;;
43457;SDS011;29046;54.184;18.680;2023-06-22T14:17:42;8.93;;;3.80;;
43457;SDS011;29046;54.184;18.680;2023-06-22T14:20:09;8.38;;;3.63;;
43457;SDS011;29046;54.184;18.680;2023-06-22T14:22:37;3.95;;;3.42;;
43457;SDS011;29046;54.184;18.680;2023-06-22T14:25:06;6.05;;;3.22;;
43457;SDS011;29046;54.184;18.680;2023-06-22T14:27:33;5.10;;;3.38;;
43457;SDS011;29046;54.184;18.680;2023-06-22T14:30:01;5.20;;;3.72;;
43457;SDS011;29046;54.184;18.680;2023-06-22T14:32:32;5.25;;;3.25;;
43457;SDS011;29046;54.184;18.680;2023-06-22T14:35:00;4.85;;;3.40;;
43457;SDS011;29046;54.184;18.680;2023-06-22T14:37:27;5.72;;;3.70;;
43457;SDS011;29046;54.184;18.680;2023-06-22T14:39:55;4.22;;;3.47;;
43457;SDS011;29046;54.184;18.680;2023-06-22T14:42:23;5.22;;;3.72;;
43457;SDS011;29046;54.184;18.680;2023-06-22T14:44:53;3.72;;;3.20;;